KBKL/BKL METAR and TAF weather

Enter ICAO airport designator
Station Type Date Time Source
KBKL METAR 2018/10/21 02:53 UTC NOAA

KBKL 210253Z 33028G39KT 10SM -RA FEW021 BKN035 OVC043 07/02 A2991 RMK AO2 PK WND 33044/0217 SLP129 P0000 60002 T00720017 53042


Station Type Date Time Source
KBKL Decoded METAR 2018/10/21 02:53 UTC NOAA

CLEVELAND BURKE LAKEFRONT, OH, United States (KBKL) 41-32N 81-40W 184M
Oct 20, 2018 - 10:53 PM EDT / 2018.10.21 0253 UTC
Wind: from the NNW (330 degrees) at 32 MPH (28 KT) gusting to 45 MPH (39 KT):0
Visibility: 10 mile(s):0
Sky conditions: overcast
Weather: light rain
Precipitation last hour: A trace
Temperature: 45.0 F (7.2 C)
Dew Point: 35.1 F (1.7 C)
Relative Humidity: 68%
Pressure (altimeter): 29.91 in. Hg (1012 hPa)
Pressure tendency: 0.12 inches (4.2 hPa) higher than three hours ago
ob: KBKL 210253Z 33028G39KT 10SM -RA FEW021 BKN035 OVC043 07/02 A2991 RMK AO2 PK WND 33044/0217 SLP129 P0000 60002 T00720017 53042
cycle: 3

Station Type Date Time Source
KBKL TAF UTC NOAA

Error!


Example: see airport list